createdAt,value
2022-10-19T00:00:15.393Z,100327.09
2022-10-19T00:00:47.893Z,100333.38
2022-10-19T00:01:22.134Z,100328.09
2022-10-19T00:01:53.991Z,100326.69
2022-10-19T00:02:25.870Z,100327.50
2022-10-19T00:02:57.735Z,100326.09
2022-10-19T00:03:29.900Z,100326.91
2022-10-19T00:04:04.834Z,100322.47
2022-10-19T00:04:39.822Z,100324.09
2022-10-19T00:05:11.663Z,100324.09
2022-10-19T00:05:43.656Z,100321.09
2022-10-19T00:06:15.765Z,100316.06
2022-10-19T00:06:47.626Z,100321.28
2022-10-19T00:07:19.432Z,100322.88
2022-10-19T00:07:51.285Z,100326.91
2022-10-19T00:08:23.205Z,100318.06
2022-10-19T00:08:57.478Z,100317.03
2022-10-19T00:09:29.364Z,100325.09
2022-10-19T00:10:01.243Z,100329.53
2022-10-19T00:10:33.674Z,100315.66
2022-10-19T00:11:05.625Z,100312.00
2022-10-19T00:11:40.913Z,100319.44
2022-10-19T00:12:13.334Z,100312.44
2022-10-19T00:12:45.216Z,100317.66
2022-10-19T00:13:17.094Z,100317.44
2022-10-19T00:13:48.977Z,100316.03
2022-10-19T00:14:23.949Z,100317.47
2022-10-19T00:14:55.885Z,100312.63
2022-10-19T00:15:27.765Z,100316.47
2022-10-19T00:15:59.672Z,100314.03
2022-10-19T00:16:34.194Z,100315.84
2022-10-19T00:17:06.374Z,100310.41
2022-10-19T00:17:38.208Z,100320.44
2022-10-19T00:18:10.056Z,100311.41
2022-10-19T00:18:46.050Z,100312.22
2022-10-19T00:19:21.757Z,100311.19
2022-10-19T00:19:53.631Z,100310.59
2022-10-19T00:20:25.488Z,100304.75
2022-10-19T00:21:06.816Z,100308.50
2022-10-19T00:21:39.576Z,100311.87
2022-10-19T00:22:13.934Z,100308.53
2022-10-19T00:22:50.782Z,100309.16
2022-10-19T00:23:22.920Z,100303.72
2022-10-19T00:23:54.769Z,100310.78
2022-10-19T00:24:26.674Z,100301.50
2022-10-19T00:24:58.635Z,100299.13
2022-10-19T00:25:30.462Z,100296.72
2022-10-19T00:26:02.499Z,100302.53
2022-10-19T00:26:34.603Z,100299.13
2022-10-19T00:27:06.639Z,100300.53
2022-10-19T00:27:38.962Z,100295.91
2022-10-19T00:28:10.881Z,100303.97
2022-10-19T00:28:43.517Z,100298.72
2022-10-19T00:29:15.757Z,100299.94
2022-10-19T00:29:47.703Z,100298.31
2022-10-19T00:30:19.577Z,100295.91
2022-10-19T00:30:51.567Z,100302.75
2022-10-19T00:31:23.666Z,100301.13
2022-10-19T00:31:55.494Z,100295.09
2022-10-19T00:32:27.518Z,100293.28
2022-10-19T00:32:59.652Z,100290.06
2022-10-19T00:33:31.480Z,100291.69
2022-10-19T00:34:03.360Z,100292.72
2022-10-19T00:34:35.208Z,100292.50
2022-10-19T00:35:07.607Z,100289.88
2022-10-19T00:35:42.670Z,100294.91
2022-10-19T00:36:20.289Z,100297.09
2022-10-19T00:36:52.228Z,100286.25
2022-10-19T00:37:24.112Z,100292.50
2022-10-19T00:37:55.952Z,100290.28
2022-10-19T00:38:28.518Z,100289.88
2022-10-19T00:39:01.466Z,100285.44
2022-10-19T00:39:33.327Z,100294.28
2022-10-19T00:40:05.964Z,100286.22
2022-10-19T00:40:38.889Z,100285.63
2022-10-19T00:41:10.899Z,100285.41
2022-10-19T00:41:44.555Z,100289.44
2022-10-19T00:42:16.437Z,100285.81
2022-10-19T00:42:54.765Z,100279.41
2022-10-19T00:43:30.193Z,100278.41
2022-10-19T00:44:12.665Z,100277.59
2022-10-19T00:44:44.456Z,100278.41
2022-10-19T00:45:18.069Z,100274.78
2022-10-19T00:45:50.644Z,100281.41
2022-10-19T00:46:23.437Z,100286.28
2022-10-19T00:47:00.035Z,100277.78
2022-10-19T00:47:32.563Z,100276.97
2022-10-19T00:48:04.452Z,100273.38
2022-10-19T00:48:36.449Z,100277.00
2022-10-19T00:49:24.831Z,100274.97
2022-10-19T00:49:58.275Z,100275.53
2022-10-19T00:50:30.167Z,100272.97
2022-10-19T00:51:02.058Z,100271.78
2022-10-19T00:51:37.269Z,100268.34
2022-10-19T00:52:15.155Z,100276.78
2022-10-19T00:52:47.508Z,100277.37
2022-10-19T00:53:19.506Z,100277.78
2022-10-19T00:53:51.707Z,100272.59
2022-10-19T00:54:25.487Z,100273.38
2022-10-19T00:54:59.183Z,100277.41
2022-10-19T00:55:31.084Z,100272.16
2022-10-19T00:56:07.864Z,100273.81
2022-10-19T00:56:42.898Z,100276.19
2022-10-19T00:57:15.259Z,100282.03
2022-10-19T00:57:47.181Z,100274.59
2022-10-19T00:58:19.861Z,100276.00
2022-10-19T00:58:51.752Z,100268.91
2022-10-19T00:59:25.269Z,100269.31
2022-10-19T00:59:58.908Z,100266.09
2022-10-19T01:00:31.497Z,100266.03
2022-10-19T01:01:06.035Z,100271.25
2022-10-19T01:01:38.792Z,100267.69
2022-10-19T01:02:10.791Z,100261.06
2022-10-19T01:02:42.636Z,100260.28
2022-10-19T01:03:14.582Z,100265.13
2022-10-19T01:03:46.796Z,100259.50
2022-10-19T01:04:21.954Z,100259.31
2022-10-19T01:04:54.809Z,100254.88
2022-10-19T01:05:28.525Z,100253.25
2022-10-19T01:06:01.539Z,100255.81
2022-10-19T01:06:34.006Z,100249.81
2022-10-19T01:07:08.067Z,100249.41
2022-10-19T01:07:39.926Z,100249.81
2022-10-19T01:08:12.294Z,100257.25
2022-10-19T01:08:44.404Z,100247.00
2022-10-19T01:09:16.397Z,100253.63
2022-10-19T01:09:48.373Z,100255.62
2022-10-19T01:10:30.639Z,100245.00
2022-10-19T01:11:17.740Z,100247.44
2022-10-19T01:12:21.701Z,100250.66
2022-10-19T01:12:56.154Z,100251.69
2022-10-19T01:13:46.477Z,100251.88
2022-10-19T01:14:36.635Z,100250.28
2022-10-19T01:15:17.170Z,100242.81
2022-10-19T01:15:49.176Z,100242.81
2022-10-19T01:16:36.130Z,100252.88
2022-10-19T01:17:26.658Z,100243.63
2022-10-19T01:18:16.705Z,100241.00
2022-10-19T01:19:22.516Z,100240.00
2022-10-19T01:20:03.269Z,100250.06
2022-10-19T01:20:43.766Z,100236.38
2022-10-19T01:21:20.474Z,100242.41
2022-10-19T01:22:24.571Z,100239.97
2022-10-19T01:23:21.011Z,100242.78
2022-10-19T01:24:26.551Z,100232.31
2022-10-19T01:25:26.275Z,100235.53
2022-10-19T01:26:50.496Z,100236.97
2022-10-19T01:27:37.577Z,100234.38
2022-10-19T01:28:37.775Z,100221.91
2022-10-19T01:29:40.367Z,100229.94
2022-10-19T01:30:20.904Z,100228.94
2022-10-19T01:31:01.962Z,100232.34
2022-10-19T01:31:48.918Z,100224.50
2022-10-19T01:32:26.440Z,100227.53
2022-10-19T01:33:26.156Z,100230.53
2022-10-19T01:34:17.476Z,100227.91
2022-10-19T01:35:13.990Z,100235.38
2022-10-19T01:36:02.774Z,100225.50
2022-10-19T01:37:07.224Z,100235.19
2022-10-19T01:37:56.685Z,100234.16
2022-10-19T01:39:00.981Z,100233.16
2022-10-19T01:39:53.163Z,100231.94
2022-10-19T01:40:44.460Z,100231.53
2022-10-19T01:41:38.912Z,100225.50
2022-10-19T01:42:14.349Z,100227.09
2022-10-19T01:43:41.785Z,100220.28
2022-10-19T01:44:22.690Z,100225.91
2022-10-19T01:44:59.712Z,100222.88
2022-10-19T01:45:41.737Z,100223.09
2022-10-19T01:46:26.881Z,100220.88
2022-10-19T01:47:05.540Z,100217.47
2022-10-19T01:47:46.363Z,100223.50
2022-10-19T01:48:22.001Z,100222.69
2022-10-19T01:49:03.235Z,100222.72
2022-10-19T01:49:35.012Z,100218.88
2022-10-19T01:50:14.598Z,100216.06
2022-10-19T01:50:56.061Z,100215.84
2022-10-19T01:51:35.472Z,100221.09
2022-10-19T01:52:10.923Z,100225.91
2022-10-19T01:52:43.114Z,100225.50
2022-10-19T01:53:18.920Z,100217.84
2022-10-19T01:53:54.316Z,100222.28
2022-10-19T01:54:30.951Z,100226.72
2022-10-19T01:55:04.424Z,100218.28
2022-10-19T01:55:42.295Z,100220.50
2022-10-19T01:56:17.922Z,100220.69
2022-10-19T01:56:52.347Z,100219.87
2022-10-19T01:57:30.110Z,100224.69
2022-10-19T01:58:08.426Z,100222.28
2022-10-19T01:58:43.986Z,100222.69
2022-10-19T01:59:19.240Z,100221.28
2022-10-19T01:59:53.385Z,100218.88
2022-10-19T02:00:27.004Z,100213.22
2022-10-19T02:01:05.477Z,100216.66
2022-10-19T02:01:41.532Z,100213.84
2022-10-19T02:02:15.355Z,100219.06
2022-10-19T02:02:50.601Z,100217.06
2022-10-19T02:03:24.888Z,100217.69
2022-10-19T02:03:58.274Z,100213.44
2022-10-19T02:04:32.176Z,100214.88
2022-10-19T02:05:07.654Z,100211.84
2022-10-19T02:05:41.485Z,100217.88
2022-10-19T02:06:14.696Z,100213.66
2022-10-19T02:06:46.960Z,100215.88
2022-10-19T02:07:21.246Z,100221.09
2022-10-19T02:07:59.268Z,100226.91
2022-10-19T02:08:37.887Z,100221.50
2022-10-19T02:09:10.119Z,100219.87
2022-10-19T02:09:41.981Z,100218.28
2022-10-19T02:10:47.667Z,100223.50
2022-10-19T02:11:21.915Z,100227.31
2022-10-19T02:11:59.591Z,100212.84
2022-10-19T02:12:33.501Z,100225.91
2022-10-19T02:13:07.926Z,100214.25
2022-10-19T02:13:42.038Z,100209.84
2022-10-19T02:14:16.351Z,100211.25
2022-10-19T02:14:53.526Z,100210.22
2022-10-19T02:15:27.412Z,100219.09
2022-10-19T02:16:04.497Z,100210.63
2022-10-19T02:16:47.548Z,100215.06
2022-10-19T02:17:30.907Z,100213.66
2022-10-19T02:18:04.636Z,100213.47
2022-10-19T02:18:44.338Z,100211.25
2022-10-19T02:19:18.397Z,100206.78
2022-10-19T02:19:51.237Z,100206.59
2022-10-19T02:20:23.816Z,100214.03
2022-10-19T02:20:56.087Z,100217.47
2022-10-19T02:21:28.838Z,100217.06
2022-10-19T02:22:00.787Z,100216.47
2022-10-19T02:22:33.096Z,100211.81
2022-10-19T02:23:06.330Z,100211.44
2022-10-19T02:23:38.147Z,100214.03
2022-10-19T02:24:10.003Z,100215.47
2022-10-19T02:24:41.875Z,100218.28
2022-10-19T02:25:14.420Z,100218.28
2022-10-19T02:25:46.849Z,100220.69
2022-10-19T02:26:19.612Z,100215.44
2022-10-19T02:26:52.308Z,100221.50
2022-10-19T02:27:24.561Z,100215.47
2022-10-19T02:27:56.516Z,100216.69
2022-10-19T02:28:30.356Z,100222.50
2022-10-19T02:29:02.297Z,100225.12
2022-10-19T02:29:35.892Z,100215.84
2022-10-19T02:30:10.847Z,100216.69
2022-10-19T02:30:42.799Z,100219.28
2022-10-19T02:31:14.620Z,100215.47
2022-10-19T02:31:46.645Z,100216.47
2022-10-19T02:32:18.626Z,100218.28
2022-10-19T02:32:51.127Z,100214.25
2022-10-19T02:33:23.251Z,100211.84
2022-10-19T02:33:55.765Z,100210.22
2022-10-19T02:34:27.802Z,100211.03
2022-10-19T02:34:59.732Z,100207.59
2022-10-19T02:35:31.697Z,100216.69
2022-10-19T02:36:03.712Z,100209.03
2022-10-19T02:36:35.902Z,100217.66
2022-10-19T02:37:07.943Z,100213.44
2022-10-19T02:37:40.472Z,100216.28
2022-10-19T02:38:16.817Z,100215.84
2022-10-19T02:38:48.801Z,100212.22
2022-10-19T02:39:21.563Z,100216.25
2022-10-19T02:39:53.575Z,100210.66
2022-10-19T02:40:26.901Z,100214.25
2022-10-19T02:41:06.519Z,100207.41
2022-10-19T02:41:48.695Z,100204.41
2022-10-19T02:42:29.079Z,100218.25
2022-10-19T02:43:06.457Z,100217.44
2022-10-19T02:43:40.887Z,100214.03
2022-10-19T02:44:22.593Z,100211.44
2022-10-19T02:45:08.692Z,100210.63
2022-10-19T02:45:51.160Z,100208.62
2022-10-19T02:46:28.899Z,100209.25
2022-10-19T02:47:11.508Z,100209.81
2022-10-19T02:47:50.887Z,100210.41
2022-10-19T02:48:25.917Z,100208.41
2022-10-19T02:48:58.986Z,100205.81
2022-10-19T02:49:34.338Z,100209.41
2022-10-19T02:50:08.542Z,100217.47
2022-10-19T02:50:45.044Z,100209.44
2022-10-19T02:51:30.240Z,100211.25
2022-10-19T02:52:05.118Z,100205.41
2022-10-19T02:52:38.470Z,100215.06
2022-10-19T02:53:10.409Z,100215.06
2022-10-19T02:53:42.256Z,100217.88
2022-10-19T02:54:14.091Z,100215.25
2022-10-19T02:54:46.002Z,100216.28
2022-10-19T02:55:18.261Z,100212.03
2022-10-19T02:55:51.573Z,100210.03
2022-10-19T02:56:23.612Z,100205.41
2022-10-19T02:56:56.547Z,100208.62
2022-10-19T02:57:28.384Z,100211.03
2022-10-19T02:58:00.251Z,100209.84
2022-10-19T02:58:32.079Z,100211.03
2022-10-19T02:59:03.958Z,100211.81
2022-10-19T02:59:35.888Z,100205.41
2022-10-19T03:00:08.820Z,100208.22
2022-10-19T03:00:41.555Z,100202.16
2022-10-19T03:01:14.648Z,100209.00
2022-10-19T03:01:46.655Z,100198.75
2022-10-19T03:02:19.923Z,100202.19
2022-10-19T03:02:51.835Z,100202.59
2022-10-19T03:03:23.639Z,100210.22
2022-10-19T03:03:55.637Z,100207.63
2022-10-19T03:04:27.480Z,100203.41
2022-10-19T03:04:59.308Z,100208.44
2022-10-19T03:05:31.169Z,100208.44
2022-10-19T03:06:03.353Z,100206.22
2022-10-19T03:06:35.197Z,100206.22
2022-10-19T03:07:08.390Z,100210.84
2022-10-19T03:07:41.432Z,100213.44
2022-10-19T03:08:13.299Z,100211.00
2022-10-19T03:08:45.195Z,100212.63
2022-10-19T03:09:17.183Z,100213.03
2022-10-19T03:09:49.515Z,100213.63
2022-10-19T03:10:21.390Z,100219.06
2022-10-19T03:10:53.223Z,100216.66
2022-10-19T03:11:25.362Z,100222.31
2022-10-19T03:11:57.185Z,100212.25
2022-10-19T03:12:29.052Z,100211.03
2022-10-19T03:13:00.890Z,100211.66
2022-10-19T03:13:32.912Z,100215.88
2022-10-19T03:14:04.788Z,100210.63
2022-10-19T03:14:36.646Z,100208.00
2022-10-19T03:15:09.253Z,100209.41
2022-10-19T03:15:41.046Z,100211.81
2022-10-19T03:16:13.834Z,100201.97
2022-10-19T03:16:46.008Z,100210.41
2022-10-19T03:17:17.893Z,100212.00
2022-10-19T03:17:53.193Z,100206.16
2022-10-19T03:18:25.061Z,100205.38
2022-10-19T03:18:56.922Z,100208.38
2022-10-19T03:19:28.891Z,100204.53
2022-10-19T03:20:00.777Z,100203.34
2022-10-19T03:20:32.659Z,100210.56
2022-10-19T03:21:10.959Z,100206.97
2022-10-19T03:21:42.845Z,100208.56
2022-10-19T03:22:15.103Z,100210.19
2022-10-19T03:22:47.040Z,100213.59
2022-10-19T03:23:18.874Z,100218.03
2022-10-19T03:23:50.707Z,100207.56
2022-10-19T03:24:22.600Z,100217.44
2022-10-19T03:24:54.559Z,100218.69
2022-10-19T03:25:26.433Z,100213.44
2022-10-19T03:25:58.287Z,100210.81
2022-10-19T03:26:30.134Z,100219.87
2022-10-19T03:27:02.198Z,100219.87
2022-10-19T03:27:34.518Z,100216.06
2022-10-19T03:28:06.612Z,100220.09
2022-10-19T03:28:38.519Z,100219.84
2022-10-19T03:29:10.498Z,100217.47
2022-10-19T03:29:43.236Z,100216.66
2022-10-19T03:30:15.117Z,100215.47
2022-10-19T03:30:46.929Z,100222.66
2022-10-19T03:31:19.423Z,100215.44
2022-10-19T03:31:51.503Z,100218.66
2022-10-19T03:32:23.349Z,100209.38
2022-10-19T03:32:55.462Z,100217.25
2022-10-19T03:33:27.334Z,100211.41
2022-10-19T03:33:59.218Z,100207.34
2022-10-19T03:34:31.126Z,100212.16
2022-10-19T03:35:02.993Z,100217.81
2022-10-19T03:35:34.827Z,100216.59
2022-10-19T03:36:23.983Z,100216.59
2022-10-19T03:36:56.836Z,100216.41
2022-10-19T03:37:28.771Z,100209.41
2022-10-19T03:38:00.934Z,100209.78
2022-10-19T03:38:32.807Z,100209.34
2022-10-19T03:39:07.512Z,100211.78
2022-10-19T03:39:39.387Z,100206.16
2022-10-19T03:40:11.264Z,100211.00
2022-10-19T03:40:43.528Z,100216.84
2022-10-19T03:41:15.355Z,100208.97
2022-10-19T03:41:47.338Z,100209.59
2022-10-19T03:42:19.231Z,100217.03
2022-10-19T03:42:51.045Z,100217.03
2022-10-19T03:43:23.180Z,100216.22
2022-10-19T03:43:55.178Z,100215.81
2022-10-19T03:44:27.111Z,100215.38
2022-10-19T03:44:58.970Z,100214.78
2022-10-19T03:45:30.803Z,100211.19
2022-10-19T03:46:02.731Z,100220.25
2022-10-19T03:46:35.573Z,100218.81
2022-10-19T03:47:07.385Z,100217.78
2022-10-19T03:47:39.230Z,100216.19
2022-10-19T03:48:11.063Z,100217.16
2022-10-19T03:48:43.818Z,100222.78
2022-10-19T03:49:16.024Z,100218.56
2022-10-19T03:49:50.203Z,100218.16
2022-10-19T03:50:21.993Z,100219.59
2022-10-19T03:51:09.532Z,100221.41
2022-10-19T03:51:41.659Z,100214.13
2022-10-19T03:52:13.644Z,100216.75
2022-10-19T03:52:45.508Z,100214.72
2022-10-19T03:53:17.344Z,100215.34
2022-10-19T03:53:53.667Z,100211.69
2022-10-19T03:54:27.427Z,100217.94
2022-10-19T03:54:59.612Z,100210.28
2022-10-19T03:55:31.549Z,100214.91
2022-10-19T03:56:15.456Z,100215.72
2022-10-19T03:56:47.351Z,100213.31
2022-10-19T03:57:19.358Z,100214.31
2022-10-19T03:57:51.215Z,100215.69
2022-10-19T03:58:23.063Z,100209.47
2022-10-19T03:58:56.994Z,100213.87
2022-10-19T03:59:28.864Z,100209.09
2022-10-19T04:00:00.794Z,100210.47
2022-10-19T04:00:32.797Z,100206.84
2022-10-19T04:01:17.311Z,100214.72
2022-10-19T04:01:49.395Z,100210.94
2022-10-19T04:02:21.314Z,100206.94
2022-10-19T04:02:53.177Z,100205.72
2022-10-19T04:03:25.542Z,100202.06
2022-10-19T04:04:00.474Z,100209.31
2022-10-19T04:04:32.354Z,100203.47
2022-10-19T04:05:04.602Z,100207.09
2022-10-19T04:05:36.508Z,100207.53
2022-10-19T04:06:11.693Z,100199.31
2022-10-19T04:06:45.992Z,100200.09
2022-10-19T04:07:18.028Z,100202.94
2022-10-19T04:07:49.944Z,100198.56
2022-10-19T04:08:21.744Z,100197.69
2022-10-19T04:08:53.715Z,100195.66
2022-10-19T04:09:25.583Z,100199.50
2022-10-19T04:09:57.470Z,100194.25
2022-10-19T04:10:31.514Z,100195.06
2022-10-19T04:11:05.923Z,100195.25
2022-10-19T04:11:39.057Z,100200.69
2022-10-19T04:12:10.996Z,100199.09
2022-10-19T04:12:42.834Z,100201.69
2022-10-19T04:13:14.780Z,100201.69
2022-10-19T04:13:50.340Z,100200.09
2022-10-19T04:14:32.225Z,100206.13
2022-10-19T04:15:05.572Z,100202.91
2022-10-19T04:15:37.392Z,100207.56
2022-10-19T04:16:13.806Z,100214.59
2022-10-19T04:16:45.915Z,100215.38
2022-10-19T04:17:17.784Z,100208.12
2022-10-19T04:17:49.635Z,100209.31
2022-10-19T04:18:21.712Z,100202.47
2022-10-19T04:18:53.872Z,100206.87
2022-10-19T04:19:25.718Z,100199.69
2022-10-19T04:19:57.627Z,100203.34
2022-10-19T04:20:29.490Z,100204.97
2022-10-19T04:21:05.917Z,100203.97
2022-10-19T04:21:39.667Z,100211.84
2022-10-19T04:22:11.814Z,100208.03
2022-10-19T04:22:43.662Z,100212.22
2022-10-19T04:23:56.817Z,100210.81
2022-10-19T04:24:28.962Z,100212.81
2022-10-19T04:25:00.782Z,100210.59
2022-10-19T04:25:32.621Z,100221.47
2022-10-19T04:26:07.545Z,100212.59
2022-10-19T04:26:45.950Z,100204.97
2022-10-19T04:27:18.188Z,100211.59
2022-10-19T04:27:50.109Z,100215.03
2022-10-19T04:28:22.132Z,100213.63
2022-10-19T04:28:54.227Z,100209.81
2022-10-19T04:29:29.681Z,100214.84
2022-10-19T04:30:02.806Z,100210.81
2022-10-19T04:30:34.658Z,100210.41
2022-10-19T04:31:07.261Z,100205.00
2022-10-19T04:31:40.133Z,100206.59
2022-10-19T04:32:12.037Z,100210.22
2022-10-19T04:32:44.192Z,100206.81
2022-10-19T04:33:16.017Z,100209.81
2022-10-19T04:33:47.899Z,100207.22
2022-10-19T04:34:20.142Z,100205.00
2022-10-19T04:34:52.010Z,100210.63
2022-10-19T04:35:23.884Z,100209.63
2022-10-19T04:36:02.932Z,100216.66
2022-10-19T04:36:34.955Z,100210.63
2022-10-19T04:37:06.820Z,100207.81
2022-10-19T04:37:38.646Z,100210.63
2022-10-19T04:38:12.124Z,100210.41
2022-10-19T04:38:43.970Z,100212.22
2022-10-19T04:39:15.847Z,100209.22
2022-10-19T04:39:47.722Z,100207.41
2022-10-19T04:40:19.561Z,100208.62
2022-10-19T04:40:51.437Z,100206.59
2022-10-19T04:41:23.890Z,100206.22
2022-10-19T04:41:55.820Z,100200.97
2022-10-19T04:42:27.705Z,100199.34
2022-10-19T04:42:59.520Z,100197.94
2022-10-19T04:43:32.034Z,100196.56
2022-10-19T04:44:08.648Z,100198.97
2022-10-19T04:44:40.883Z,100199.75
2022-10-19T04:45:12.748Z,100202.19
2022-10-19T04:45:44.553Z,100203.19
2022-10-19T04:46:19.321Z,100205.22
2022-10-19T04:46:51.264Z,100206.63
2022-10-19T04:47:23.149Z,100205.63
2022-10-19T04:47:56.564Z,100206.00
2022-10-19T04:48:28.418Z,100205.41
2022-10-19T04:49:00.641Z,100204.19
2022-10-19T04:49:32.486Z,100204.59
2022-10-19T04:50:04.604Z,100210.22
2022-10-19T04:50:36.444Z,100211.44
2022-10-19T04:51:10.408Z,100202.78
2022-10-19T04:51:42.314Z,100203.78
2022-10-19T04:52:14.127Z,100203.41
2022-10-19T04:52:45.973Z,100198.38
2022-10-19T04:53:19.287Z,100193.97
2022-10-19T04:53:52.549Z,100201.81
2022-10-19T04:54:26.598Z,100198.16
2022-10-19T04:54:58.436Z,100200.38
2022-10-19T04:55:30.369Z,100200.97
2022-10-19T04:56:06.405Z,100197.75
2022-10-19T04:56:39.683Z,100202.16
2022-10-19T04:57:12.571Z,100204.19
2022-10-19T04:57:44.400Z,100208.22
2022-10-19T04:58:17.140Z,100201.19
2022-10-19T04:58:49.265Z,100200.38
2022-10-19T04:59:21.103Z,100201.16
2022-10-19T04:59:53.327Z,100200.16
2022-10-19T05:00:25.454Z,100206.97
2022-10-19T05:00:57.342Z,100205.56
2022-10-19T05:01:30.841Z,100208.19
2022-10-19T05:02:02.928Z,100207.59
2022-10-19T05:02:37.295Z,100207.78
2022-10-19T05:03:09.383Z,100204.97
2022-10-19T05:03:41.234Z,100206.94
2022-10-19T05:04:13.104Z,100211.59
2022-10-19T05:04:45.281Z,100205.00
2022-10-19T05:05:17.620Z,100205.97
2022-10-19T05:05:49.503Z,100206.19
2022-10-19T05:06:22.198Z,100210.63
2022-10-19T05:06:54.026Z,100206.59
2022-10-19T05:07:25.851Z,100207.41
2022-10-19T05:07:57.713Z,100206.56
2022-10-19T05:08:29.695Z,100210.37
2022-10-19T05:09:01.531Z,100212.56
2022-10-19T05:09:33.468Z,100208.75
2022-10-19T05:10:06.867Z,100208.16
2022-10-19T05:10:39.926Z,100212.22
2022-10-19T05:11:15.394Z,100212.81
2022-10-19T05:11:49.997Z,100220.06
2022-10-19T05:12:21.893Z,100218.47
2022-10-19T05:12:53.788Z,100229.53
2022-10-19T05:13:25.648Z,100220.69
2022-10-19T05:13:57.649Z,100229.72
2022-10-19T05:14:29.493Z,100230.50
2022-10-19T05:15:01.360Z,100226.69
2022-10-19T05:15:33.588Z,100229.50
2022-10-19T05:16:07.343Z,100232.28
2022-10-19T05:16:39.244Z,100234.28
2022-10-19T05:17:11.166Z,100237.72
2022-10-19T05:17:43.003Z,100232.31
2022-10-19T05:18:14.859Z,100232.31
2022-10-19T05:18:48.949Z,100235.94
2022-10-19T05:19:20.811Z,100230.28
2022-10-19T05:19:52.635Z,100234.75
2022-10-19T05:20:24.742Z,100234.31
2022-10-19T05:21:03.601Z,100237.13
2022-10-19T05:21:35.723Z,100239.38
2022-10-19T05:22:08.780Z,100241.38
2022-10-19T05:22:40.656Z,100239.59
2022-10-19T05:23:12.522Z,100233.34
2022-10-19T05:23:44.820Z,100234.34
2022-10-19T05:24:16.724Z,100234.53
2022-10-19T05:24:48.538Z,100232.53
2022-10-19T05:25:20.415Z,100231.31
2022-10-19T05:26:02.875Z,100232.94
2022-10-19T05:26:34.692Z,100234.94
2022-10-19T05:27:06.831Z,100236.34
2022-10-19T05:27:38.815Z,100236.16
2022-10-19T05:28:10.661Z,100247.22
2022-10-19T05:28:47.580Z,100239.34
2022-10-19T05:29:19.564Z,100243.16
2022-10-19T05:29:51.417Z,100250.37
2022-10-19T05:30:23.255Z,100242.94
2022-10-19T05:30:56.152Z,100245.53
2022-10-19T05:31:30.176Z,100244.72
2022-10-19T05:32:02.026Z,100247.84
2022-10-19T05:32:34.757Z,100244.78
2022-10-19T05:33:06.609Z,100246.78
2022-10-19T05:33:39.514Z,100245.81
2022-10-19T05:34:11.404Z,100247.84
2022-10-19T05:34:43.319Z,100250.53
2022-10-19T05:35:17.508Z,100252.38
2022-10-19T05:35:51.909Z,100248.75
2022-10-19T05:36:29.421Z,100254.56
2022-10-19T05:37:01.316Z,100249.53
2022-10-19T05:37:33.460Z,100247.47
2022-10-19T05:38:05.773Z,100244.63
2022-10-19T05:38:37.673Z,100241.41
2022-10-19T05:39:14.195Z,100244.63
2022-10-19T05:39:46.033Z,100246.63
2022-10-19T05:40:17.870Z,100243.06
2022-10-19T05:40:52.950Z,100244.31
2022-10-19T05:41:26.455Z,100246.59
2022-10-19T05:41:58.330Z,100246.59
2022-10-19T05:42:30.212Z,100250.09
2022-10-19T05:43:02.042Z,100247.06
2022-10-19T05:43:34.331Z,100245.81
2022-10-19T05:44:06.399Z,100246.03
2022-10-19T05:45:15.056Z,100252.16
2022-10-19T05:45:46.944Z,100254.34
2022-10-19T05:46:19.351Z,100244.94
2022-10-19T05:46:52.078Z,100253.59
2022-10-19T05:47:27.348Z,100255.22
2022-10-19T05:48:02.072Z,100255.44
2022-10-19T05:48:35.558Z,100258.66
2022-10-19T05:49:07.466Z,100260.50
2022-10-19T05:49:39.323Z,100253.06
2022-10-19T05:50:11.168Z,100257.47
2022-10-19T05:50:55.241Z,100254.88
2022-10-19T05:51:28.446Z,100254.09
2022-10-19T05:52:00.411Z,100256.06
2022-10-19T05:52:32.232Z,100255.69
2022-10-19T05:53:04.060Z,100259.28
2022-10-19T05:53:36.313Z,100258.25
2022-10-19T05:54:08.610Z,100256.06
2022-10-19T05:54:40.674Z,100254.28
2022-10-19T05:55:12.488Z,100257.53
2022-10-19T05:55:44.294Z,100255.97
2022-10-19T05:56:19.014Z,100262.03
2022-10-19T05:56:50.925Z,100260.16
2022-10-19T05:57:22.773Z,100256.94
2022-10-19T05:57:54.647Z,100259.38
2022-10-19T05:58:26.821Z,100251.00
2022-10-19T05:59:02.047Z,100250.63
2022-10-19T05:59:34.267Z,100254.03
2022-10-19T06:00:06.505Z,100254.19
2022-10-19T06:00:43.510Z,100253.84
2022-10-19T06:01:18.926Z,100247.16
2022-10-19T06:01:51.170Z,100254.69
2022-10-19T06:02:23.071Z,100256.06
2022-10-19T06:02:59.057Z,100256.09
2022-10-19T06:03:31.487Z,100259.66
2022-10-19T06:04:04.263Z,100261.41
2022-10-19T06:04:36.142Z,100258.66
2022-10-19T06:05:08.128Z,100265.44
2022-10-19T06:05:39.928Z,100263.16
2022-10-19T06:06:12.203Z,100258.19
2022-10-19T06:06:44.415Z,100255.28
2022-10-19T06:07:16.349Z,100254.75
2022-10-19T06:07:48.179Z,100258.19
2022-10-19T06:08:21.573Z,100260.28
2022-10-19T06:08:55.348Z,100265.28
2022-10-19T06:09:27.254Z,100264.09
2022-10-19T06:09:59.113Z,100269.41
2022-10-19T06:10:30.944Z,100266.56
2022-10-19T06:11:11.411Z,100272.78
2022-10-19T06:11:43.685Z,100264.78
2022-10-19T06:12:16.397Z,100274.75
2022-10-19T06:12:48.344Z,100274.34
2022-10-19T06:13:20.412Z,100277.81
2022-10-19T06:13:54.997Z,100275.66
2022-10-19T06:14:26.809Z,100274.63
2022-10-19T06:14:58.651Z,100282.00
2022-10-19T06:15:33.880Z,100281.88
2022-10-19T06:16:07.453Z,100284.72
2022-10-19T06:16:39.629Z,100276.56
2022-10-19T06:17:11.493Z,100282.25
2022-10-19T06:17:43.599Z,100279.44
2022-10-19T06:18:15.406Z,100281.56
2022-10-19T06:18:47.379Z,100276.78
2022-10-19T06:19:19.236Z,100283.00
2022-10-19T06:19:51.069Z,100281.19
2022-10-19T06:20:22.907Z,100275.22
2022-10-19T06:20:54.759Z,100280.56
2022-10-19T06:21:29.918Z,100278.47
2022-10-19T06:22:01.800Z,100281.78
2022-10-19T06:22:33.619Z,100282.38
2022-10-19T06:23:06.291Z,100285.81
2022-10-19T06:23:38.426Z,100285.31
2022-10-19T06:24:10.943Z,100284.09
2022-10-19T06:24:42.768Z,100287.03
2022-10-19T06:25:17.992Z,100286.94
2022-10-19T06:25:52.173Z,100288.91
2022-10-19T06:26:24.545Z,100292.00
2022-10-19T06:26:56.442Z,100291.09
2022-10-19T06:27:29.175Z,100293.22
2022-10-19T06:28:01.788Z,100294.19
2022-10-19T06:28:34.953Z,100290.03
2022-10-19T06:29:06.869Z,100293.16
2022-10-19T06:29:38.692Z,100294.13
2022-10-19T06:30:11.195Z,100298.13
2022-10-19T06:30:43.122Z,100295.66
2022-10-19T06:31:16.026Z,100295.72
2022-10-19T06:31:48.087Z,100298.09
2022-10-19T06:32:19.971Z,100296.75
2022-10-19T06:32:51.954Z,100303.34
2022-10-19T06:33:23.895Z,100305.63
2022-10-19T06:33:56.503Z,100300.28